Time;durP1;ratioP1;P1;durP2;ratioP2;P2;SDS_P1;SDS_P2;PMS_P1;PMS_P2;Temp;Humidity;BMP_temperature;BMP_pressure;BME280_temperature;BME280_humidity;BME280_pressure;Samples;Min_cycle;Max_cycle;Signal;HPM_P1;HPM_P2
2021/06/08 00:01:18;;;;;;;11.52;6.70;;;;;;;11.78;74.52;96457.75;5161066;27;20018;-83
2021/06/08 00:03:43;;;;;;;6.93;6.15;;;;;;;11.78;74.52;96457.75;5161115;27;20409;-83
2021/06/08 00:06:09;;;;;;;10.95;8.02;;;;;;;11.78;74.52;96457.75;5161118;27;20019;-83
2021/06/08 00:08:35;;;;;;;15.57;13.32;;;;;;;11.78;74.52;96457.75;5161015;27;20076;-83
2021/06/08 00:11:01;;;;;;;13.00;9.93;;;;;;;11.78;74.52;96457.75;5161940;27;20027;-83
2021/06/08 00:13:27;;;;;;;17.63;15.18;;;;;;;11.41;73.41;96438.16;5160793;27;20030;-83
2021/06/08 00:15:52;;;;;;;14.88;11.25;;;;;;;11.41;73.41;96438.16;5161940;27;20027;-83
2021/06/08 00:18:18;;;;;;;14.70;11.63;;;;;;;11.41;73.41;96438.16;5161789;27;20029;-83
2021/06/08 00:20:44;;;;;;;9.25;7.97;;;;;;;11.19;74.83;96422.84;5160432;27;20342;-82
2021/06/08 00:23:10;;;;;;;8.82;7.68;;;;;;;11.19;74.83;96422.84;5160731;27;20026;-83
2021/06/08 00:25:35;;;;;;;10.63;7.10;;;;;;;11.26;74.50;96446.22;5161699;27;20106;-83
2021/06/08 00:28:03;;;;;;;9.70;6.68;;;;;;;11.26;74.50;96446.22;5160706;27;20018;-83
2021/06/08 00:30:30;;;;;;;8.65;6.90;;;;;;;11.26;74.50;96446.22;5161924;27;20022;-82
2021/06/08 00:32:58;;;;;;;9.50;6.80;;;;;;;11.26;74.50;96446.22;5160545;27;20027;-83
2021/06/08 00:35:25;;;;;;;9.65;6.82;;;;;;;11.26;74.50;96446.22;5160480;27;20038;-83
2021/06/08 00:37:51;;;;;;;10.18;7.07;;;;;;;11.26;74.50;96446.22;5160830;27;20328;-83
2021/06/08 00:40:16;;;;;;;11.48;7.00;;;;;;;-145.61;100.00;68426.72;5160127;27;20026;-83
2021/06/08 00:42:44;;;;;;;10.63;7.00;;;;;;;-145.61;100.00;68426.72;5160115;27;20022;-83
2021/06/08 00:45:11;;;;;;;10.63;6.97;;;;;;;-145.61;100.00;68426.72;5160604;27;20455;-83
2021/06/08 00:47:37;;;;;;;11.10;6.97;;;;;;;-145.61;100.00;68426.72;5160486;27;20026;-82
2021/06/08 00:50:04;;;;;;;9.02;6.85;;;;;;;11.26;74.50;96446.22;5160104;27;20418;-83
2021/06/08 00:52:29;;;;;;;9.18;6.55;;;;;;;-145.61;100.00;68426.72;5160433;27;20467;-83
2021/06/08 00:54:55;;;;;;;9.68;6.60;;;;;;;-145.61;100.00;68426.72;5160187;27;20027;-83
2021/06/08 00:57:21;;;;;;;7.40;6.55;;;;;;;-145.61;100.00;68426.72;5160225;27;20414;-82
2021/06/08 00:59:46;;;;;;;11.45;6.65;;;;;;;11.26;74.50;96446.22;5161331;27;20326;-83
2021/06/08 01:02:15;;;;;;;8.20;6.53;;;;;;;-145.61;100.00;68426.72;5161643;27;20026;-83
2021/06/08 01:04:41;;;;;;;14.32;6.63;;;;;;;-145.61;100.00;68426.72;5159769;27;20042;-83
2021/06/08 01:07:07;;;;;;;8.50;6.20;;;;;;;-145.61;75.82;68426.72;5160209;27;20027;-84
2021/06/08 01:09:33;;;;;;;8.65;6.80;;;;;;;-145.61;100.00;68426.72;5160268;27;20141;-83
2021/06/08 01:11:58;;;;;;;9.98;6.70;;;;;;;10.33;75.82;96382.47;5160876;27;20106;-83
2021/06/08 01:14:24;;;;;;;8.05;6.78;;;;;;;-145.61;100.00;68426.72;5159778;27;20322;-83
2021/06/08 01:16:49;;;;;;;10.13;6.88;;;;;;;10.33;75.82;96382.47;5160737;27;20421;-83
2021/06/08 01:19:19;;;;;;;7.88;6.38;;;;;;;-145.61;100.00;68426.72;5160715;27;20038;-83
2021/06/08 01:21:45;;;;;;;10.70;6.40;;;;;;;-145.61;100.00;68426.72;5159507;27;20047;-83
2021/06/08 01:24:10;;;;;;;11.15;6.88;;;;;;;-145.61;100.00;68426.72;5159609;27;20026;-83
2021/06/08 01:26:38;;;;;;;8.18;7.20;;;;;;;-145.61;100.00;68426.72;5159226;27;20029;-83
2021/06/08 01:29:05;;;;;;;9.55;7.32;;;;;;;-145.61;100.00;68426.72;5159060;27;20325;-81
2021/06/08 01:31:35;;;;;;;10.52;7.53;;;;;;;-145.61;100.00;68426.72;5160394;27;20027;-83
2021/06/08 01:34:01;;;;;;;9.05;6.78;;;;;;;-145.61;100.00;68426.72;5160320;27;20018;-83
2021/06/08 01:36:30;;;;;;;13.43;7.07;;;;;;;-145.61;100.00;68426.72;5160389;27;20018;-83
2021/06/08 01:38:55;;;;;;;9.93;7.03;;;;;;;-145.61;75.82;75029.25;5159355;27;20307;-83
2021/06/08 01:41:25;;;;;;;13.55;7.70;;;;;;;-145.61;100.00;68426.72;5160232;27;20143;-82
2021/06/08 01:43:52;;;;;;;10.40;6.68;;;;;;;-145.61;100.00;68426.72;5160217;27;20026;-82
2021/06/08 01:46:20;;;;;;;9.82;6.82;;;;;;;-145.61;100.00;68426.72;5160134;27;20425;-83
2021/06/08 01:48:46;;;;;;;7.85;6.75;;;;;;;-145.61;100.00;68426.72;5160635;27;20357;-82
2021/06/08 01:51:41;;;;;;;12.05;7.22;;;;;;;-145.61;100.00;68426.72;5158909;27;20414;-83
2021/06/08 01:54:34;;;;;;;9.18;6.90;;;;;;;-145.61;100.00;68426.72;5158842;27;20409;-83
2021/06/08 01:57:20;;;;;;;9.27;6.68;;;;;;;-145.61;100.00;68426.72;5159979;27;20022;-82
2021/06/08 02:00:06;;;;;;;11.00;7.35;;;;;;;10.33;75.82;96382.47;5160167;27;20018;-82
2021/06/08 02:02:56;;;;;;;10.60;7.25;;;;;;;-145.61;100.00;68426.72;5158698;27;20062;-82
2021/06/08 02:05:29;;;;;;;10.07;7.38;;;;;;;-145.61;100.00;68426.72;5159734;27;20109;-83
2021/06/08 02:08:02;;;;;;;8.55;6.93;;;;;;;-145.61;100.00;68426.72;5158419;27;20033;-83
2021/06/08 02:10:40;;;;;;;10.32;7.47;;;;;;;10.33;75.82;96382.47;5159546;27;20022;-82
2021/06/08 02:13:18;;;;;;;11.07;7.00;;;;;;;-145.61;100.00;68426.72;5159584;27;20106;-82
2021/06/08 02:15:53;;;;;;;33.85;23.67;;;;;;;-145.61;100.00;68426.72;5158430;27;20407;-83
2021/06/08 02:18:21;;;;;;;21.65;14.55;;;;;;;10.33;75.82;96382.47;5159568;27;20030;-83
2021/06/08 02:20:48;;;;;;;17.02;9.63;;;;;;;-145.61;100.00;68426.72;5158183;27;20077;-82
2021/06/08 02:23:19;;;;;;;10.07;7.88;;;;;;;-145.61;100.00;68426.72;5159479;27;20126;-83
2021/06/08 02:25:47;;;;;;;13.45;7.75;;;;;;;10.33;75.82;96382.47;5158324;27;20027;-83
2021/06/08 02:28:15;;;;;;;10.60;7.57;;;;;;;-145.61;100.00;68426.72;5159330;27;20014;-83
2021/06/08 02:30:43;;;;;;;12.02;8.20;;;;;;;-145.61;100.00;68426.72;5158247;27;20382;-84
2021/06/08 02:33:10;;;;;;;11.93;7.50;;;;;;;-145.61;100.00;68426.72;5158182;27;20109;-83
2021/06/08 02:35:38;;;;;;;11.68;7.95;;;;;;;-145.61;100.00;68426.72;5158068;27;20371;-83
2021/06/08 02:38:04;;;;;;;10.25;7.32;;;;;;;-145.61;100.00;68426.72;5159392;27;20410;-83
2021/06/08 02:40:31;;;;;;;9.70;7.25;;;;;;;10.33;75.82;96382.47;5159077;27;20029;-83
2021/06/08 02:42:58;;;;;;;11.63;7.88;;;;;;;-145.61;100.00;68426.72;5158010;27;20317;-83
2021/06/08 02:45:24;;;;;;;9.50;7.57;;;;;;;-145.61;100.00;68426.72;5157959;27;20029;-82
2021/06/08 02:47:51;;;;;;;11.30;8.25;;;;;;;-145.61;100.00;68426.72;5158972;27;20022;-83
2021/06/08 02:50:18;;;;;;;10.52;6.97;;;;;;;-145.61;100.00;68426.72;5157613;27;20022;-83
2021/06/08 02:52:45;;;;;;;11.18;7.43;;;;;;;10.33;75.82;96382.47;5159019;27;20410;-83
2021/06/08 02:55:12;;;;;;;9.48;7.10;;;;;;;10.33;75.82;96382.47;5157770;27;20116;-83
2021/06/08 02:57:38;;;;;;;12.07;7.90;;;;;;;10.33;75.82;96382.47;5157929;27;20027;-83
2021/06/08 03:00:07;;;;;;;13.57;7.45;;;;;;;10.33;75.82;96382.47;5159514;27;20030;-82
2021/06/08 03:02:36;;;;;;;14.18;7.72;;;;;;;10.33;75.82;96382.47;5158445;27;20026;-82
2021/06/08 03:05:05;;;;;;;10.77;7.15;;;;;;;-145.61;100.00;68426.72;5158731;27;20033;-83
2021/06/08 03:07:36;;;;;;;12.57;7.40;;;;;;;-145.61;100.00;68426.72;5157199;27;20033;-82
2021/06/08 03:10:01;;;;;;;9.90;7.10;;;;;;;9.54;79.04;96482.63;5159279;27;20023;-83
2021/06/08 03:12:34;;;;;;;12.20;7.38;;;;;;;9.54;79.04;96482.63;5157601;27;20059;-82
2021/06/08 03:15:03;;;;;;;12.43;8.45;;;;;;;-145.61;100.00;68426.72;5159026;27;20097;-82
2021/06/08 03:17:30;;;;;;;12.73;8.15;;;;;;;9.54;79.04;96482.63;5157536;27;20026;-82
2021/06/08 03:20:09;;;;;;;14.40;7.85;;;;;;;-145.61;100.00;68426.72;5158385;27;20049;-82
2021/06/08 03:22:51;;;;;;;9.45;7.82;;;;;;;9.54;79.04;96482.63;5144839;27;20131;-82
2021/06/08 03:25:19;;;;;;;15.40;7.95;;;;;;;9.54;79.04;96482.63;5158524;27;20038;-82
2021/06/08 03:27:47;;;;;;;12.60;8.18;;;;;;;-145.61;100.00;68426.72;5157422;27;20325;-83
2021/06/08 03:30:14;;;;;;;12.95;8.18;;;;;;;9.54;79.04;96482.63;5157286;27;20026;-82
2021/06/08 03:32:39;;;;;;;12.13;7.80;;;;;;;9.54;79.04;96482.63;5157503;27;20075;-83
2021/06/08 03:35:07;;;;;;;12.77;7.78;;;;;;;9.54;79.04;96482.63;5158557;27;20015;-83
2021/06/08 03:37:34;;;;;;;13.52;7.75;;;;;;;-145.61;100.00;68426.72;5158545;27;20030;-83
2021/06/08 03:40:01;;;;;;;12.55;8.35;;;;;;;9.54;79.04;96482.63;5157341;27;20023;-82
2021/06/08 03:42:27;;;;;;;12.75;8.05;;;;;;;-145.61;100.00;68426.72;5158491;27;20023;-82
2021/06/08 03:44:53;;;;;;;17.55;8.27;;;;;;;-145.61;100.00;68426.72;5157329;27;20053;-83
2021/06/08 03:47:20;;;;;;;13.52;7.88;;;;;;;-145.61;100.00;68426.72;5157285;27;20059;-82
2021/06/08 03:49:47;;;;;;;9.57;7.63;;;;;;;-145.61;100.00;68426.72;5157195;27;20019;-83
2021/06/08 03:52:13;;;;;;;11.27;7.75;;;;;;;-145.61;100.00;68426.72;5155515;27;20137;-83
2021/06/08 03:54:39;;;;;;;12.43;7.50;;;;;;;-145.61;100.00;68426.72;5136539;28;20482;-83
2021/06/08 03:57:05;;;;;;;13.95;8.00;;;;;;;-145.61;100.00;68426.72;5170513;27;20053;-83
2021/06/08 03:59:33;;;;;;;13.13;8.32;;;;;;;-145.61;100.00;68426.72;5178835;27;20034;-83
2021/06/08 04:02:00;;;;;;;13.93;10.18;;;;;;;-145.61;100.00;68426.72;5178835;27;20028;-83
2021/06/08 04:04:26;;;;;;;13.80;8.18;;;;;;;-145.61;100.00;68426.72;5175040;27;20033;-84
2021/06/08 04:06:52;;;;;;;10.88;7.38;;;;;;;-145.61;100.00;68426.72;5158230;27;20031;-83
2021/06/08 04:09:18;;;;;;;10.23;8.45;;;;;;;-145.61;100.00;68426.72;5157079;27;20015;-83
2021/06/08 04:11:48;;;;;;;12.30;8.52;;;;;;;-145.61;100.00;68426.72;5157021;27;20033;-83
2021/06/08 04:14:14;;;;;;;13.65;8.45;;;;;;;-145.61;100.00;68426.72;5159470;27;20030;-83
2021/06/08 04:16:40;;;;;;;13.25;8.68;;;;;;;-145.61;100.00;68426.72;5160823;27;20030;-83
2021/06/08 04:19:10;;;;;;;14.65;11.07;;;;;;;-145.61;100.00;68426.72;5160439;27;20322;-83
2021/06/08 04:21:37;;;;;;;11.40;8.63;;;;;;;-145.61;100.00;68426.72;5160669;27;20039;-82
2021/06/08 04:24:05;;;;;;;10.38;8.52;;;;;;;-145.61;100.00;68426.72;5160779;27;20039;-83
2021/06/08 04:26:32;;;;;;;14.25;9.27;;;;;;;-145.61;100.00;68426.72;5160308;27;20029;-83
2021/06/08 04:28:57;;;;;;;13.07;8.88;;;;;;;-145.61;100.00;68426.72;5161651;27;20310;-83
2021/06/08 04:31:24;;;;;;;11.88;8.40;;;;;;;-145.61;100.00;68426.72;5148961;27;20038;-83
2021/06/08 04:33:50;;;;;;;12.20;8.60;;;;;;;-145.61;100.00;68426.72;5139279;27;20366;-82
2021/06/08 04:36:17;;;;;;;12.90;9.60;;;;;;;-145.61;100.00;68426.72;5140760;27;20107;-82
2021/06/08 04:38:43;;;;;;;12.00;9.93;;;;;;;-145.61;100.00;68426.72;5139813;27;20027;-81
2021/06/08 04:41:08;;;;;;;17.65;10.45;;;;;;;-145.61;100.00;68426.72;5145159;27;20021;-81
2021/06/08 04:43:35;;;;;;;14.35;9.75;;;;;;;-145.61;100.00;68426.72;5140600;27;20105;-82
2021/06/08 04:46:03;;;;;;;14.77;9.60;;;;;;;-145.61;100.00;68426.72;5139419;27;20021;-82
2021/06/08 04:48:28;;;;;;;14.60;11.63;;;;;;;-145.61;100.00;68426.72;5139475;27;20105;-82
2021/06/08 04:50:54;;;;;;;11.70;10.35;;;;;;;-145.61;100.00;68426.72;5151220;27;20119;-82
2021/06/08 04:53:21;;;;;;;14.43;10.45;;;;;;;-145.61;100.00;68426.72;5140077;27;20027;-82
2021/06/08 04:55:46;;;;;;;14.32;10.98;;;;;;;-145.61;100.00;68426.72;5143428;27;20027;-82
2021/06/08 04:58:12;;;;;;;14.50;11.15;;;;;;;-145.61;100.00;68426.72;5161597;27;20400;-81
2021/06/08 05:00:46;;;;;;;17.52;11.63;;;;;;;-145.61;100.00;68426.72;5145396;27;20026;-81
2021/06/08 05:03:18;;;;;;;17.60;11.70;;;;;;;-145.61;100.00;68426.72;5147743;27;20090;-81
2021/06/08 05:05:49;;;;;;;15.90;11.95;;;;;;;-145.61;100.00;68426.72;5159801;27;20307;-82
2021/06/08 05:08:20;;;;;;;15.30;11.77;;;;;;;-145.61;100.00;68426.72;5161884;27;20101;-82
2021/06/08 05:10:57;;;;;;;17.95;12.27;;;;;;;-145.61;100.00;68426.72;5138759;27;20150;-83
2021/06/08 05:13:25;;;;;;;15.65;12.05;;;;;;;-145.61;100.00;68426.72;5143913;27;20414;-82
2021/06/08 05:15:52;;;;;;;15.23;11.43;;;;;;;-145.61;100.00;68426.72;5160738;27;20031;-83
2021/06/08 05:18:20;;;;;;;14.10;10.65;;;;;;;-145.61;100.00;68426.72;5159605;27;20030;-82
2021/06/08 05:20:46;;;;;;;13.48;10.30;;;;;;;-145.61;100.00;68426.72;5160278;27;20046;-82
2021/06/08 05:23:14;;;;;;;13.73;11.38;;;;;;;-145.61;100.00;68426.72;5159285;27;20026;-81
2021/06/08 05:25:42;;;;;;;18.63;11.30;;;;;;;-145.61;100.00;68426.72;5152070;27;20027;-81
2021/06/08 05:28:08;;;;;;;12.68;10.05;;;;;;;-145.61;100.00;68426.72;5157482;27;20049;-82
2021/06/08 05:30:37;;;;;;;17.33;10.00;;;;;;;-145.61;100.00;68426.72;5162424;27;20022;-82
2021/06/08 05:33:03;;;;;;;15.95;10.13;;;;;;;-145.61;100.00;68426.72;5143496;27;20027;-82
2021/06/08 05:35:30;;;;;;;15.40;9.20;;;;;;;-145.61;100.00;68426.72;5141216;27;20031;-82
2021/06/08 05:38:06;;;;;;;13.30;9.57;;;;;;;-145.61;100.00;68426.72;5153338;27;20035;-82
2021/06/08 05:40:32;;;;;;;15.20;9.32;;;;;;;-145.61;100.00;68426.72;5138346;27;20100;-83
2021/06/08 05:42:57;;;;;;;9.65;8.65;;;;;;;-145.61;100.00;68426.72;5157472;27;20027;-84
2021/06/08 05:45:23;;;;;;;11.90;9.10;;;;;;;-145.61;100.00;68426.72;5149365;27;20318;-84
2021/06/08 05:47:49;;;;;;;10.77;8.73;;;;;;;-145.61;100.00;68426.72;5159976;27;20023;-84
2021/06/08 05:50:16;;;;;;;24.70;21.95;;;;;;;-145.61;100.00;68426.72;5140850;27;20019;-85
2021/06/08 05:52:42;;;;;;;17.75;14.50;;;;;;;-145.61;100.00;68426.72;5139283;27;20034;-84
2021/06/08 05:55:10;;;;;;;10.68;8.95;;;;;;;-145.61;100.00;68426.72;5137995;27;20102;-85
2021/06/08 05:57:36;;;;;;;13.38;8.98;;;;;;;-145.61;100.00;68426.72;5148953;27;20394;-84
2021/06/08 06:00:04;;;;;;;11.13;8.10;;;;;;;-145.61;100.00;68426.72;5151805;27;20026;-85
2021/06/08 06:02:33;;;;;;;11.00;8.80;;;;;;;9.54;79.04;96482.63;5158685;27;20117;-84
2021/06/08 06:04:59;;;;;;;12.43;8.77;;;;;;;9.54;79.04;96482.63;5153760;27;20050;-85
2021/06/08 06:07:26;;;;;;;9.85;8.40;;;;;;;9.54;79.04;96482.63;5153780;27;20156;-85
2021/06/08 06:09:53;;;;;;;10.95;8.05;;;;;;;13.46;69.95;96479.88;5158109;27;20055;-85
2021/06/08 06:12:19;;;;;;;8.63;7.75;;;;;;;13.36;68.76;96451.94;5150956;27;20031;-85
2021/06/08 06:14:48;;;;;;;8.45;7.55;;;;;;;13.92;69.23;96519.47;5138810;27;20027;-83
2021/06/08 06:17:14;;;;;;;10.20;8.57;;;;;;;13.52;68.42;96447.97;5145364;27;20057;-83
2021/06/08 06:19:42;;;;;;;8.90;7.93;;;;;;;13.76;68.69;96469.63;5146461;27;20087;-83
2021/06/08 06:22:08;;;;;;;9.30;7.95;;;;;;;13.76;68.35;96472.38;5150584;27;20410;-83
2021/06/08 06:24:35;;;;;;;11.63;8.30;;;;;;;14.19;68.27;96508.16;5158278;27;20026;-83
2021/06/08 06:27:02;;;;;;;8.73;7.70;;;;;;;14.03;67.95;96471.22;5158326;27;20410;-84
2021/06/08 06:29:28;;;;;;;12.25;7.82;;;;;;;14.30;67.02;96497.38;5140512;27;20027;-84
2021/06/08 06:31:56;;;;;;;14.07;10.07;;;;;;;14.22;67.92;96471.72;5158107;27;20059;-84
2021/06/08 06:34:24;;;;;;;9.90;7.78;;;;;;;14.58;67.24;96511.38;5150570;27;20114;-84
2021/06/08 06:36:51;;;;;;;11.15;8.10;;;;;;;14.11;67.81;96425.91;5137750;27;20027;-82
2021/06/08 06:39:20;;;;;;;13.70;7.97;;;;;;;14.54;67.41;96471.81;5137278;27;20034;-83
2021/06/08 06:41:52;;;;;;;12.40;7.73;;;;;;;14.65;67.12;96480.91;5147171;27;20022;-85
2021/06/08 06:44:20;;;;;;;8.07;7.15;;;;;;;14.92;65.85;96495.34;5159136;27;20025;-85
2021/06/08 06:46:47;;;;;;;13.45;8.00;;;;;;;14.97;65.21;96491.91;5137139;27;20098;-85
2021/06/08 06:49:13;;;;;;;10.85;7.68;;;;;;;14.42;65.73;96400.63;5138144;27;20027;-85
2021/06/08 06:51:41;;;;;;;9.05;6.82;;;;;;;15.03;65.75;96481.00;5138971;27;20120;-85
2021/06/08 06:54:08;;;;;;;10.27;7.53;;;;;;;14.86;65.07;96442.56;5157541;27;20030;-85
2021/06/08 06:56:34;;;;;;;8.43;6.90;;;;;;;14.71;65.15;96409.16;5158582;27;20030;-85
2021/06/08 06:59:00;;;;;;;9.60;6.95;;;;;;;15.30;64.09;96479.75;5157293;27;20030;-85
2021/06/08 07:01:27;;;;;;;8.90;7.20;;;;;;;15.14;63.30;96443.56;5144628;27;20020;-85
2021/06/08 07:03:55;;;;;;;8.95;7.00;;;;;;;15.24;62.85;96432.44;5136875;27;20015;-85
2021/06/08 07:06:22;;;;;;;8.55;7.15;;;;;;;15.63;61.00;96477.25;5137843;27;20023;-84
2021/06/08 07:08:56;;;;;;;8.15;7.18;;;;;;;15.32;61.17;96417.81;5153125;27;20030;-84
2021/06/08 07:11:22;;;;;;;9.38;6.80;;;;;;;15.52;61.98;96438.84;5157096;27;20034;-85
2021/06/08 07:13:49;;;;;;;8.43;6.75;;;;;;;15.88;61.68;96472.94;5141266;27;20019;-84
2021/06/08 07:16:16;;;;;;;9.20;6.70;;;;;;;16.09;61.17;96478.28;5140466;27;20354;-85
2021/06/08 07:18:45;;;;;;;10.63;8.02;;;;;;;15.68;61.43;96405.38;5150880;27;21544;-84
2021/06/08 07:21:12;;;;;;;13.00;7.75;;;;;;;15.82;61.51;96406.44;5158023;27;20039;-85
2021/06/08 07:23:38;;;;;;;9.27;7.35;;;;;;;16.07;60.91;96434.91;5156823;27;20125;-84
2021/06/08 07:26:04;;;;;;;8.85;7.30;;;;;;;15.99;58.55;96406.50;5157386;27;20162;-85
2021/06/08 07:28:31;;;;;;;10.45;7.20;;;;;;;16.55;58.42;96472.44;5150526;27;20051;-85
2021/06/08 07:30:57;;;;;;;9.52;6.68;;;;;;;16.62;58.34;96474.72;5156594;27;20021;-84
2021/06/08 07:33:41;;;;;;;8.20;6.40;;;;;;;16.71;59.04;96474.50;5146699;27;20418;-85
2021/06/08 07:36:16;;;;;;;9.27;7.75;;;;;;;16.65;57.94;96448.28;5152094;27;20325;-85
2021/06/08 07:38:50;;;;;;;10.50;6.80;;;;;;;16.54;57.08;96412.63;5147163;27;20019;-85
2021/06/08 07:42:03;;;;;;;8.43;6.30;;;;;;;16.78;57.34;96437.63;5143199;27;20023;-85
2021/06/08 07:44:39;;;;;;;12.13;6.20;;;;;;;17.13;57.59;96445.38;5109939;27;20043;-85
2021/06/08 07:47:07;;;;;;;10.88;6.78;;;;;;;17.19;56.08;96439.88;5137334;27;20186;-85
2021/06/08 07:49:35;;;;;;;11.85;6.93;;;;;;;17.42;57.60;96459.84;5140512;27;20023;-85
2021/06/08 07:52:03;;;;;;;9.48;6.05;;;;;;;17.42;57.04;96432.41;5151427;27;20375;-85
2021/06/08 07:54:32;;;;;;;11.50;6.80;;;;;;;17.25;56.43;96391.97;5161067;27;20100;-85
2021/06/08 07:56:58;;;;;;;28.63;20.33;;;;;;;17.28;54.93;96373.75;5150502;27;20162;-85
2021/06/08 07:59:25;;;;;;;12.00;7.40;;;;;;;17.96;54.31;96451.28;5155156;27;20034;-85
2021/06/08 08:01:51;;;;;;;9.77;5.88;;;;;;;17.83;52.79;96407.84;5157460;27;20039;-84
2021/06/08 08:04:22;;;;;;;9.95;5.72;;;;;;;17.90;51.80;96410.09;5161028;27;20122;-85
2021/06/08 08:06:53;;;;;;;6.78;4.90;;;;;;;18.36;53.85;96454.59;5159780;27;20906;-85
2021/06/08 08:09:19;;;;;;;9.23;6.28;;;;;;;18.44;51.87;96448.06;5161820;27;20097;-85
2021/06/08 08:11:47;;;;;;;7.63;4.70;;;;;;;18.40;51.65;96417.34;5157198;27;20023;-84
2021/06/08 08:14:15;;;;;;;8.57;4.88;;;;;;;18.29;52.73;96378.91;5154423;27;20018;-85
2021/06/08 08:16:44;;;;;;;11.05;4.80;;;;;;;18.44;48.59;96384.84;5157118;27;20105;-85
2021/06/08 08:19:10;;;;;;;4.50;3.93;;;;;;;18.43;49.50;96369.59;5153721;27;20025;-85
2021/06/08 08:21:36;;;;;;;10.45;4.90;;;;;;;18.86;49.49;96404.09;5156319;27;20579;-85
2021/06/08 08:24:01;;;;;;;9.23;4.85;;;;;;;18.84;50.56;96393.56;5157465;27;20011;-85
2021/06/08 08:26:27;;;;;;;7.43;4.65;;;;;;;19.06;48.89;96387.88;5160633;27;20323;-85
2021/06/08 08:28:58;;;;;;;5.30;3.80;;;;;;;18.93;45.25;96359.50;5149998;27;20027;-85
2021/06/08 08:31:27;;;;;;;5.75;3.30;;;;;;;19.47;43.05;96413.81;5142048;27;20019;-85
2021/06/08 08:33:53;;;;;;;5.88;3.10;;;;;;;19.64;38.58;96425.44;5145157;27;20057;-85
2021/06/08 08:36:19;;;;;;;3.00;2.70;;;;;;;19.46;39.82;96377.28;5159905;27;20050;-85
2021/06/08 08:38:44;;;;;;;6.50;4.70;;;;;;;19.63;41.66;96383.38;5158004;27;20031;-85
2021/06/08 08:41:10;;;;;;;7.40;4.03;;;;;;;19.96;42.96;96430.34;5161331;27;20074;-85
2021/06/08 08:43:38;;;;;;;6.10;3.05;;;;;;;19.97;39.48;96423.56;5149135;27;20027;-85
2021/06/08 08:46:04;;;;;;;5.93;3.25;;;;;;;19.69;42.00;96380.53;5158734;27;20314;-85
2021/06/08 08:48:32;;;;;;;4.40;3.25;;;;;;;19.97;41.89;96390.50;5151511;27;20027;-85
2021/06/08 08:50:57;;;;;;;3.42;3.00;;;;;;;20.00;41.61;96368.16;5159825;27;20029;-85
2021/06/08 08:53:23;;;;;;;4.43;3.40;;;;;;;20.05;40.54;96386.63;5160822;27;20027;-85
2021/06/08 08:55:49;;;;;;;4.95;3.40;;;;;;;20.26;40.85;96377.88;5153517;27;20418;-85
2021/06/08 08:58:16;;;;;;;6.32;3.63;;;;;;;20.39;41.21;96377.91;5160899;27;20034;-86
2021/06/08 09:00:44;;;;;;;5.25;3.50;;;;;;;20.54;39.60;96374.72;5153494;27;20466;-85
2021/06/08 09:03:13;;;;;;;6.60;3.22;;;;;;;20.81;41.42;96414.94;5160063;27;20018;-85
2021/06/08 09:05:40;;;;;;;3.53;3.10;;;;;;;20.58;39.98;96377.94;5156684;27;20079;-85
2021/06/08 09:08:07;;;;;;;6.15;3.20;;;;;;;20.90;37.50;96398.00;5160273;27;20049;-85
2021/06/08 09:10:35;;;;;;;4.13;2.95;;;;;;;20.61;37.69;96352.81;5159893;27;20313;-85
2021/06/08 09:13:01;;;;;;;3.20;2.35;;;;;;;20.96;35.58;96400.69;5152672;27;20045;-85
2021/06/08 09:15:27;;;;;;;6.13;2.35;;;;;;;20.66;34.97;96342.94;5151522;27;20068;-85
2021/06/08 09:17:54;;;;;;;2.75;2.30;;;;;;;20.91;32.87;96384.94;5138842;27;20027;-85
2021/06/08 09:20:20;;;;;;;4.22;2.53;;;;;;;21.03;34.22;96413.13;5138556;27;20057;-85
2021/06/08 09:22:56;;;;;;;2.63;2.40;;;;;;;20.79;35.85;96405.72;5144126;27;20137;-85
2021/06/08 09:25:34;;;;;;;4.85;2.95;;;;;;;21.17;35.66;96411.88;5160344;27;20046;-85
2021/06/08 09:28:15;;;;;;;2.67;2.33;;;;;;;21.31;35.39;96412.69;5147381;27;20041;-85
2021/06/08 09:30:40;;;;;;;3.78;2.72;;;;;;;20.75;36.28;96361.13;5159300;27;20031;-85
2021/06/08 09:33:33;;;;;;;3.20;2.30;;;;;;;20.97;32.89;96371.06;5158945;27;20030;-85
2021/06/08 09:36:08;;;;;;;4.07;2.42;;;;;;;21.06;34.67;96376.19;5159353;27;20387;-85
2021/06/08 09:38:44;;;;;;;4.55;2.67;;;;;;;21.53;35.57;96403.28;5148900;27;20035;-85
2021/06/08 09:41:10;;;;;;;5.57;2.70;;;;;;;21.43;34.57;96362.25;5155611;27;20079;-85
2021/06/08 09:43:48;;;;;;;4.45;2.53;;;;;;;21.79;33.24;96395.00;5159042;27;20055;-85
2021/06/08 09:46:14;;;;;;;3.53;2.30;;;;;;;21.55;33.87;96326.13;5158887;27;20045;-85
2021/06/08 09:49:13;;;;;;;3.28;2.35;;;;;;;22.32;33.81;96386.66;5158863;27;20022;-85
2021/06/08 09:51:57;;;;;;;6.13;2.78;;;;;;;22.26;33.97;96388.03;5158377;27;20042;-85
2021/06/08 09:54:43;;;;;;;7.22;2.70;;;;;;;22.46;33.18;96390.13;5148471;27;20023;-85
2021/06/08 09:57:28;;;;;;;4.55;2.80;;;;;;;22.82;32.59;96368.16;5152506;27;20295;-85
2021/06/08 10:00:03;;;;;;;3.13;2.80;;;;;;;23.25;35.05;96394.59;5139616;27;20035;-85
2021/06/08 10:02:43;;;;;;;2.63;2.38;;;;;;;23.20;31.64;96371.28;5155332;27;20023;-85
2021/06/08 10:05:17;;;;;;;3.85;2.45;;;;;;;22.85;32.08;96350.50;5145026;27;20072;-85
2021/06/08 10:07:42;;;;;;;4.78;2.53;;;;;;;22.85;31.32;96352.47;5151931;27;20378;-85
2021/06/08 10:10:10;;;;;;;2.67;2.47;;;;;;;23.25;32.11;96373.16;5140355;27;20050;-85
2021/06/08 10:12:53;;;;;;;4.40;2.45;;;;;;;23.13;32.87;96383.03;5149020;27;20023;-84
2021/06/08 10:15:19;;;;;;;4.18;2.30;;;;;;;22.79;33.45;96338.78;5141886;27;20027;-85
2021/06/08 10:17:44;;;;;;;3.50;2.35;;;;;;;22.57;33.29;96317.19;5147206;27;20049;-85
2021/06/08 10:20:25;;;;;;;4.50;2.55;;;;;;;22.94;32.70;96380.47;5152074;27;20117;-84
2021/06/08 10:22:50;;;;;;;;;;;;;;;23.11;33.20;96379.31;5149593;27;20022;-85
2021/06/08 10:25:16;;;;;;;3.78;2.60;;;;;;;22.70;32.54;96309.56;5159076;27;19959;-85
2021/06/08 10:27:42;;;;;;;3.17;2.60;;;;;;;22.86;30.28;96293.09;5159199;27;20033;-84
2021/06/08 10:30:09;;;;;;;5.07;2.45;;;;;;;23.51;28.58;96374.28;5158154;27;20023;-85
2021/06/08 10:32:36;;;;;;;3.45;2.35;;;;;;;23.62;31.26;96364.91;5157020;27;20027;-85
2021/06/08 10:35:03;;;;;;;5.43;2.53;;;;;;;24.01;31.54;96359.03;5157951;27;20322;-85
2021/06/08 10:37:31;;;;;;;2.63;2.35;;;;;;;24.04;30.29;96360.72;5158655;27;20031;-85
2021/06/08 10:39:58;;;;;;;4.03;2.55;;;;;;;23.65;30.16;96294.56;5159000;27;20026;-85
2021/06/08 10:42:25;;;;;;;3.58;2.80;;;;;;;23.71;30.88;96331.94;5151841;27;20026;-85
2021/06/08 10:45:03;;;;;;;2.78;2.47;;;;;;;23.62;29.59;96348.28;5156589;27;20031;-84
2021/06/08 10:48:05;;;;;;;2.88;2.05;;;;;;;23.64;30.26;96296.59;5158605;27;20025;-85
2021/06/08 10:50:29;;;;;;;2.72;2.08;;;;;;;23.75;30.81;96360.03;5155303;27;20035;-86
2021/06/08 10:53:34;;;;;;;4.93;2.70;;;;;;;23.44;30.93;96363.88;5160346;27;20026;-87
2021/06/08 10:56:01;;;;;;;6.38;2.63;;;;;;;22.85;33.54;96308.19;5098104;28;20028;-88
2021/06/08 10:58:42;;;;;;;4.88;2.78;;;;;;;22.73;35.21;96319.53;5125969;27;20027;-87
2021/06/08 11:01:35;;;;;;;6.22;3.17;;;;;;;22.29;36.25;96279.13;5138438;27;20023;-87
2021/06/08 11:04:28;;;;;;;6.85;2.88;;;;;;;22.84;36.34;96365.59;5138213;27;20026;-87
2021/06/08 11:07:03;;;;;;;5.00;2.90;;;;;;;23.47;31.04;96341.34;5136993;27;20087;-87
2021/06/08 11:09:33;;;;;;;3.97;2.58;;;;;;;23.51;33.89;96341.03;5141926;27;20023;-87
2021/06/08 11:12:09;;;;;;;5.22;3.00;;;;;;;23.74;32.82;96325.28;5158952;27;20318;-87
2021/06/08 11:17:15;;;;;;;2.50;2.30;;;;;;;24.67;31.63;96359.66;5180208;27;20334;-86
2021/06/08 11:19:41;;;;;;;2.80;2.50;;;;;;;25.21;31.38;96355.63;5187496;27;20409;-86
2021/06/08 11:22:07;;;;;;;4.60;2.70;;;;;;;25.32;29.79;96310.81;5161622;27;20019;-88
2021/06/08 11:24:35;;;;;;;4.32;2.85;;;;;;;25.84;29.78;96321.63;5159590;27;20033;-85
2021/06/08 11:27:00;;;;;;;4.28;2.33;;;;;;;25.84;28.01;96299.41;5139953;27;20050;-85
2021/06/08 11:29:53;;;;;;;3.05;2.60;;;;;;;25.01;30.06;96301.00;5152007;27;20374;-84
2021/06/08 11:32:31;;;;;;;3.53;2.65;;;;;;;24.82;30.77;96338.22;5153838;27;20031;-85